sensor_id;sensor_type;location;lat;lon;timestamp;pressure;altitude;pressure_sealevel;temperature;humidity
9439;BME280;5176;42.622;25.386;2023-02-13T00:01:23;99019.88;;;1.89;75.02
9439;BME280;5176;42.622;25.386;2023-02-13T00:03:51;98982.81;;;1.73;75.31
9439;BME280;5176;42.622;25.386;2023-02-13T00:06:18;98979.38;;;1.65;74.75
9439;BME280;5176;42.622;25.386;2023-02-13T00:08:45;99016.41;;;1.87;74.57
9439;BME280;5176;42.622;25.386;2023-02-13T00:11:13;99020.75;;;1.80;74.37
9439;BME280;5176;42.622;25.386;2023-02-13T00:13:41;99021.63;;;1.81;73.96
9439;BME280;5176;42.622;25.386;2023-02-13T00:16:09;99016.47;;;1.81;73.55
9439;BME280;5176;42.622;25.386;2023-02-13T00:18:37;99017.28;;;1.78;73.32
9439;BME280;5176;42.622;25.386;2023-02-13T00:21:06;99031.09;;;1.77;73.26
9439;BME280;5176;42.622;25.386;2023-02-13T00:23:34;99031.09;;;1.70;74.10
9439;BME280;5176;42.622;25.386;2023-02-13T00:26:07;99025.06;;;1.66;74.13
9439;BME280;5176;42.622;25.386;2023-02-13T00:28:35;99022.47;;;1.60;74.12
9439;BME280;5176;42.622;25.386;2023-02-13T00:31:05;99035.41;;;1.54;74.07
9439;BME280;5176;42.622;25.386;2023-02-13T00:33:32;99026.78;;;1.47;75.08
9439;BME280;5176;42.622;25.386;2023-02-13T00:36:04;99032.81;;;1.42;75.05
9439;BME280;5176;42.622;25.386;2023-02-13T00:38:32;99031.94;;;1.35;75.29
9439;BME280;5176;42.622;25.386;2023-02-13T00:40:59;99034.50;;;1.30;76.19
9439;BME280;5176;42.622;25.386;2023-02-13T00:43:27;99028.44;;;1.19;76.37
9439;BME280;5176;42.622;25.386;2023-02-13T00:45:54;99030.16;;;1.17;76.46
9439;BME280;5176;42.622;25.386;2023-02-13T00:48:24;99027.59;;;1.14;76.58
9439;BME280;5176;42.622;25.386;2023-02-13T00:50:52;99030.16;;;1.11;76.46
9439;BME280;5176;42.622;25.386;2023-02-13T00:53:20;99032.75;;;1.09;77.53
9439;BME280;5176;42.622;25.386;2023-02-13T00:55:48;99032.75;;;1.08;77.82
9439;BME280;5176;42.622;25.386;2023-02-13T00:58:16;99025.84;;;1.04;78.13
9439;BME280;5176;42.622;25.386;2023-02-13T01:00:43;99040.44;;;0.94;77.74
9439;BME280;5176;42.622;25.386;2023-02-13T01:03:11;99038.72;;;0.90;78.74
9439;BME280;5176;42.622;25.386;2023-02-13T01:05:41;99026.63;;;0.83;78.91
9439;BME280;5176;42.622;25.386;2023-02-13T01:08:09;99036.16;;;0.95;78.81
9439;BME280;5176;42.622;25.386;2023-02-13T01:10:36;99032.69;;;0.99;78.57
9439;BME280;5176;42.622;25.386;2023-02-13T01:13:04;99036.16;;;1.01;78.24
9439;BME280;5176;42.622;25.386;2023-02-13T01:15:32;99030.97;;;0.96;77.93
9439;BME280;5176;42.622;25.386;2023-02-13T01:17:59;99030.88;;;0.70;79.36
9439;BME280;5176;42.622;25.386;2023-02-13T01:20:27;99034.34;;;0.75;80.23
9439;BME280;5176;42.622;25.386;2023-02-13T01:22:56;99028.28;;;0.73;79.21
9439;BME280;5176;42.622;25.386;2023-02-13T01:25:23;99033.47;;;0.73;79.36
9439;BME280;5176;42.622;25.386;2023-02-13T01:27:51;99036.06;;;0.76;79.87
9439;BME280;5176;42.622;25.386;2023-02-13T01:30:19;99031.78;;;0.77;80.08
9439;BME280;5176;42.622;25.386;2023-02-13T01:32:46;99032.63;;;0.77;79.24
9439;BME280;5176;42.622;25.386;2023-02-13T01:35:14;99038.66;;;0.75;78.73
9439;BME280;5176;42.622;25.386;2023-02-13T01:37:42;99018.78;;;0.57;79.28
9439;BME280;5176;42.622;25.386;2023-02-13T01:40:12;99048.09;;;0.73;79.55
9439;BME280;5176;42.622;25.386;2023-02-13T01:42:40;99042.06;;;0.71;79.00
9439;BME280;5176;42.622;25.386;2023-02-13T01:45:20;99048.94;;;0.73;78.41
9439;BME280;5176;42.622;25.386;2023-02-13T01:47:50;98991.16;;;0.35;78.10
9439;BME280;5176;42.622;25.386;2023-02-13T01:50:22;99057.56;;;0.68;77.84
9439;BME280;5176;42.622;25.386;2023-02-13T01:52:53;99055.81;;;0.67;77.97
9439;BME280;5176;42.622;25.386;2023-02-13T01:55:25;99048.91;;;0.61;77.89
9439;BME280;5176;42.622;25.386;2023-02-13T01:57:58;99058.34;;;0.59;78.54
9439;BME280;5176;42.622;25.386;2023-02-13T02:00:28;99054.94;;;0.65;78.03
9439;BME280;5176;42.622;25.386;2023-02-13T02:02:58;99049.78;;;0.62;78.02
9439;BME280;5176;42.622;25.386;2023-02-13T02:05:29;99053.19;;;0.56;77.82
9439;BME280;5176;42.622;25.386;2023-02-13T02:07:57;99060.00;;;0.46;78.64
9439;BME280;5176;42.622;25.386;2023-02-13T02:10:27;99064.34;;;0.47;79.26
9439;BME280;5176;42.622;25.386;2023-02-13T02:13:02;99066.88;;;0.44;79.76
9439;BME280;5176;42.622;25.386;2023-02-13T02:15:30;99056.56;;;0.41;78.89
9439;BME280;5176;42.622;25.386;2023-02-13T02:17:58;99065.16;;;0.40;79.08
9439;BME280;5176;42.622;25.386;2023-02-13T02:20:43;99054.81;;;0.36;79.20
9439;BME280;5176;42.622;25.386;2023-02-13T02:29:46;99060.78;;;0.32;80.27
9439;BME280;5176;42.622;25.386;2023-02-13T02:32:29;99054.75;;;0.31;80.31
9439;BME280;5176;42.622;25.386;2023-02-13T02:35:08;99013.34;;;0.04;79.47
9439;BME280;5176;42.622;25.386;2023-02-13T02:37:47;99065.03;;;0.22;79.26
9439;BME280;5176;42.622;25.386;2023-02-13T02:40:24;99052.91;;;0.12;78.99
9439;BME280;5176;42.622;25.386;2023-02-13T02:43:02;99068.44;;;0.15;78.78
9439;BME280;5176;42.622;25.386;2023-02-13T02:45:38;99039.03;;;-0.10;78.16
9439;BME280;5176;42.622;25.386;2023-02-13T02:48:16;99071.78;;;0.06;78.04
9439;BME280;5176;42.622;25.386;2023-02-13T02:51:09;99070.91;;;0.01;79.30
9439;BME280;5176;42.622;25.386;2023-02-13T02:53:41;99074.34;;;0.00;80.44
9439;BME280;5176;42.622;25.386;2023-02-13T02:56:13;99070.88;;;-0.04;80.80
9439;BME280;5176;42.622;25.386;2023-02-13T02:58:46;99073.50;;;0.03;81.02
9439;BME280;5176;42.622;25.386;2023-02-13T03:01:33;99076.94;;;0.00;80.63
9439;BME280;5176;42.622;25.386;2023-02-13T03:04:24;98990.47;;;-0.66;80.68
9439;BME280;5176;42.622;25.386;2023-02-13T03:07:13;99081.22;;;0.03;80.21
9439;BME280;5176;42.622;25.386;2023-02-13T03:09:46;99083.81;;;0.04;80.24
9439;BME280;5176;42.622;25.386;2023-02-13T03:12:35;99081.22;;;0.01;79.48
9439;BME280;5176;42.622;25.386;2023-02-13T03:15:21;99071.69;;;-0.08;79.06
9439;BME280;5176;42.622;25.386;2023-02-13T03:17:49;99071.66;;;-0.12;79.53
9439;BME280;5176;42.622;25.386;2023-02-13T03:20:43;99071.63;;;-0.14;79.32
9439;BME280;5176;42.622;25.386;2023-02-13T03:23:36;99059.53;;;-0.22;78.82
9439;BME280;5176;42.622;25.386;2023-02-13T03:26:27;99073.34;;;-0.19;79.41
9439;BME280;5176;42.622;25.386;2023-02-13T03:29:13;99077.59;;;-0.24;79.72
9439;BME280;5176;42.622;25.386;2023-02-13T03:32:09;99086.97;;;-0.28;81.01
9439;BME280;5176;42.622;25.386;2023-02-13T03:34:44;99094.75;;;-0.24;80.20
9439;BME280;5176;42.622;25.386;2023-02-13T03:37:36;99082.72;;;-0.24;79.63
9439;BME280;5176;42.622;25.386;2023-02-13T03:40:22;99054.16;;;-0.48;79.33
9439;BME280;5176;42.622;25.386;2023-02-13T03:42:56;99067.88;;;-0.51;79.14
9439;BME280;5176;42.622;25.386;2023-02-13T03:45:29;99090.22;;;-0.51;80.21
9439;BME280;5176;42.622;25.386;2023-02-13T03:48:17;99091.94;;;-0.47;80.79
9439;BME280;5176;42.622;25.386;2023-02-13T03:51:11;99088.50;;;-0.49;81.38
9439;BME280;5176;42.622;25.386;2023-02-13T03:53:44;99086.78;;;-0.49;81.50
9439;BME280;5176;42.622;25.386;2023-02-13T03:56:14;99065.19;;;-0.62;81.20
9439;BME280;5176;42.622;25.386;2023-02-13T03:59:03;99085.06;;;-0.51;80.82
9439;BME280;5176;42.622;25.386;2023-02-13T04:01:50;99078.13;;;-0.60;81.41
9439;BME280;5176;42.622;25.386;2023-02-13T04:04:37;99083.22;;;-0.62;81.27
9439;BME280;5176;42.622;25.386;2023-02-13T04:07:08;99080.63;;;-0.65;80.76
9439;BME280;5176;42.622;25.386;2023-02-13T04:09:40;99090.06;;;-0.67;80.45
9439;BME280;5176;42.622;25.386;2023-02-13T04:12:13;99102.94;;;-0.67;80.31
9439;BME280;5176;42.622;25.386;2023-02-13T04:14:47;99064.06;;;-0.90;80.09
9439;BME280;5176;42.622;25.386;2023-02-13T04:17:18;99096.88;;;-0.73;80.75
9439;BME280;5176;42.622;25.386;2023-02-13T04:19:48;99092.53;;;-0.77;81.15
9439;BME280;5176;42.622;25.386;2023-02-13T04:22:16;99093.38;;;-0.77;80.62
9439;BME280;5176;42.622;25.386;2023-02-13T04:24:45;99100.25;;;-0.76;80.34
9439;BME280;5176;42.622;25.386;2023-02-13T04:27:13;99104.59;;;-0.73;80.21
9439;BME280;5176;42.622;25.386;2023-02-13T04:29:41;99069.13;;;-0.97;79.85
9439;BME280;5176;42.622;25.386;2023-02-13T04:32:09;99097.59;;;-0.82;79.34
9439;BME280;5176;42.622;25.386;2023-02-13T04:34:36;99100.09;;;-0.88;80.43
9439;BME280;5176;42.622;25.386;2023-02-13T04:37:03;99097.56;;;-0.87;80.41
9439;BME280;5176;42.622;25.386;2023-02-13T04:39:31;99099.25;;;-0.90;80.69
9439;BME280;5176;42.622;25.386;2023-02-13T04:42:00;99107.81;;;-0.93;80.65
9439;BME280;5176;42.622;25.386;2023-02-13T04:44:28;99112.03;;;-0.95;80.48
9439;BME280;5176;42.622;25.386;2023-02-13T04:46:55;99117.19;;;-0.98;80.52
9439;BME280;5176;42.622;25.386;2023-02-13T04:49:24;99112.00;;;-0.99;80.96
9439;BME280;5176;42.622;25.386;2023-02-13T04:51:51;99109.44;;;-0.99;81.13
9439;BME280;5176;42.622;25.386;2023-02-13T04:54:19;99103.38;;;-1.03;81.68
9439;BME280;5176;42.622;25.386;2023-02-13T04:56:46;99071.38;;;-1.26;81.10
9439;BME280;5176;42.622;25.386;2023-02-13T04:59:15;99117.06;;;-1.07;81.69
9439;BME280;5176;42.622;25.386;2023-02-13T05:01:42;99100.69;;;-1.14;82.79
9439;BME280;5176;42.622;25.386;2023-02-13T05:04:09;99118.03;;;-0.99;82.42
9439;BME280;5176;42.622;25.386;2023-02-13T05:06:40;99131.75;;;-0.98;81.96
9439;BME280;5176;42.622;25.386;2023-02-13T05:09:09;99105.00;;;-1.11;80.57
9439;BME280;5176;42.622;25.386;2023-02-13T05:11:36;99122.31;;;-0.98;80.47
9439;BME280;5176;42.622;25.386;2023-02-13T05:14:04;99123.09;;;-1.03;80.15
9439;BME280;5176;42.622;25.386;2023-02-13T05:16:34;99125.53;;;-1.16;80.82
9439;BME280;5176;42.622;25.386;2023-02-13T05:19:02;99136.69;;;-1.15;81.33
9439;BME280;5176;42.622;25.386;2023-02-13T05:21:29;99132.34;;;-1.19;81.92
9439;BME280;5176;42.622;25.386;2023-02-13T05:24:13;99134.94;;;-1.16;81.87
9439;BME280;5176;42.622;25.386;2023-02-13T05:26:40;99134.06;;;-1.20;81.84
9439;BME280;5176;42.622;25.386;2023-02-13T05:29:09;99127.13;;;-1.25;81.96
9439;BME280;5176;42.622;25.386;2023-02-13T05:31:47;99127.13;;;-1.25;82.47
9439;BME280;5176;42.622;25.386;2023-02-13T05:34:16;99139.22;;;-1.20;82.96
9439;BME280;5176;42.622;25.386;2023-02-13T05:36:43;99133.94;;;-1.27;83.05
9439;BME280;5176;42.622;25.386;2023-02-13T05:39:11;99141.66;;;-1.27;83.48
9439;BME280;5176;42.622;25.386;2023-02-13T05:41:39;99125.22;;;-1.40;83.70
9439;BME280;5176;42.622;25.386;2023-02-13T05:44:07;99123.44;;;-1.43;84.47
9439;BME280;5176;42.622;25.386;2023-02-13T05:46:36;99148.66;;;-1.17;85.41
9439;BME280;5176;42.622;25.386;2023-02-13T05:49:07;99148.75;;;-1.13;85.51
9439;BME280;5176;42.622;25.386;2023-02-13T05:51:35;99147.06;;;-1.09;85.58
9439;BME280;5176;42.622;25.386;2023-02-13T05:54:03;99126.44;;;-1.14;85.81
9439;BME280;5176;42.622;25.386;2023-02-13T05:56:30;99134.25;;;-1.06;86.17
9439;BME280;5176;42.622;25.386;2023-02-13T05:58:58;99136.03;;;-0.99;85.53
9439;BME280;5176;42.622;25.386;2023-02-13T06:01:26;99139.47;;;-1.00;86.18
9439;BME280;5176;42.622;25.386;2023-02-13T06:03:53;99148.25;;;-0.83;86.74
9439;BME280;5176;42.622;25.386;2023-02-13T06:06:22;99143.09;;;-0.81;86.72
9439;BME280;5176;42.622;25.386;2023-02-13T06:08:50;99111.09;;;-1.03;87.05
9439;BME280;5176;42.622;25.386;2023-02-13T06:11:18;99145.72;;;-0.79;86.75
9439;BME280;5176;42.622;25.386;2023-02-13T06:13:45;99149.19;;;-0.76;86.37
9439;BME280;5176;42.622;25.386;2023-02-13T06:16:13;99145.81;;;-0.72;86.41
9439;BME280;5176;42.622;25.386;2023-02-13T06:18:42;99151.03;;;-0.66;86.58
9439;BME280;5176;42.622;25.386;2023-02-13T06:21:10;99138.19;;;-0.63;86.70
9439;BME280;5176;42.622;25.386;2023-02-13T06:23:38;99115.84;;;-0.65;86.43
9439;BME280;5176;42.622;25.386;2023-02-13T06:26:07;99155.66;;;-0.34;86.03
9439;BME280;5176;42.622;25.386;2023-02-13T06:28:34;99160.13;;;-0.15;84.66
9439;BME280;5176;42.622;25.386;2023-02-13T06:31:01;99161.06;;;-0.08;85.24
9439;BME280;5176;42.622;25.386;2023-02-13T06:33:31;99169.84;;;0.12;84.33
9439;BME280;5176;42.622;25.386;2023-02-13T06:36:01;99149.25;;;0.20;83.89
9439;BME280;5176;42.622;25.386;2023-02-13T06:38:28;99148.66;;;0.53;82.62
9439;BME280;5176;42.622;25.386;2023-02-13T06:41:00;99158.28;;;0.75;81.16
9439;BME280;5176;42.622;25.386;2023-02-13T06:43:27;99156.66;;;0.97;79.72
9439;BME280;5176;42.622;25.386;2023-02-13T06:45:54;99150.72;;;1.18;79.26
9439;BME280;5176;42.622;25.386;2023-02-13T06:48:22;99136.13;;;1.23;76.96
9439;BME280;5176;42.622;25.386;2023-02-13T06:50:49;99152.59;;;1.63;75.71
9439;BME280;5176;42.622;25.386;2023-02-13T06:53:18;99147.47;;;1.85;74.75
9439;BME280;5176;42.622;25.386;2023-02-13T06:55:50;99155.25;;;2.17;73.38
9439;BME280;5176;42.622;25.386;2023-02-13T06:58:19;99159.56;;;2.38;72.73
9439;BME280;5176;42.622;25.386;2023-02-13T07:00:47;99140.59;;;2.45;71.38
9439;BME280;5176;42.622;25.386;2023-02-13T07:03:14;99082.81;;;2.18;70.93
9439;BME280;5176;42.622;25.386;2023-02-13T07:05:42;99139.66;;;2.72;70.87
9439;BME280;5176;42.622;25.386;2023-02-13T07:08:11;99132.75;;;2.82;70.09
9439;BME280;5176;42.622;25.386;2023-02-13T07:10:39;99126.66;;;2.92;69.98
9439;BME280;5176;42.622;25.386;2023-02-13T07:13:07;99137.81;;;3.12;69.56
9439;BME280;5176;42.622;25.386;2023-02-13T07:15:36;99136.06;;;3.28;69.29
9439;BME280;5176;42.622;25.386;2023-02-13T07:18:04;99142.78;;;3.60;68.27
9439;BME280;5176;42.622;25.386;2023-02-13T07:20:33;99143.59;;;3.72;66.81
9439;BME280;5176;42.622;25.386;2023-02-13T07:23:02;99135.66;;;3.95;66.02
9439;BME280;5176;42.622;25.386;2023-02-13T07:25:30;99110.56;;;3.96;64.73
9439;BME280;5176;42.622;25.386;2023-02-13T07:28:00;99054.53;;;3.75;64.14
9439;BME280;5176;42.622;25.386;2023-02-13T07:30:29;99114.41;;;4.55;63.85
9439;BME280;5176;42.622;25.386;2023-02-13T07:33:10;99130.59;;;4.78;63.01
9439;BME280;5176;42.622;25.386;2023-02-13T07:35:37;99128.75;;;4.88;62.56
9439;BME280;5176;42.622;25.386;2023-02-13T07:38:06;99133.16;;;4.80;62.50
9439;BME280;5176;42.622;25.386;2023-02-13T07:40:33;99136.00;;;4.57;62.00
9439;BME280;5176;42.622;25.386;2023-02-13T07:43:00;99092.88;;;4.41;62.79
9439;BME280;5176;42.622;25.386;2023-02-13T07:45:28;99130.75;;;4.64;60.51
9439;BME280;5176;42.622;25.386;2023-02-13T07:47:55;99120.19;;;4.80;60.47
9439;BME280;5176;42.622;25.386;2023-02-13T07:50:24;99103.50;;;4.99;59.28
9439;BME280;5176;42.622;25.386;2023-02-13T07:52:55;99124.09;;;5.17;58.57
9439;BME280;5176;42.622;25.386;2023-02-13T07:55:22;99122.28;;;5.21;59.20
9439;BME280;5176;42.622;25.386;2023-02-13T07:57:50;99122.81;;;5.51;58.63
9439;BME280;5176;42.622;25.386;2023-02-13T08:00:19;99111.16;;;5.74;57.38
9439;BME280;5176;42.622;25.386;2023-02-13T08:02:46;99113.59;;;5.87;56.49
9439;BME280;5176;42.622;25.386;2023-02-13T08:05:14;99121.78;;;6.21;56.75
9439;BME280;5176;42.622;25.386;2023-02-13T08:07:43;99109.38;;;6.37;54.54
9439;BME280;5176;42.622;25.386;2023-02-13T08:10:11;99108.34;;;6.45;53.57
9439;BME280;5176;42.622;25.386;2023-02-13T08:12:56;99100.25;;;6.62;53.83
9439;BME280;5176;42.622;25.386;2023-02-13T08:15:24;99088.94;;;6.62;54.02
9439;BME280;5176;42.622;25.386;2023-02-13T08:17:51;99091.22;;;6.78;53.94
9439;BME280;5176;42.622;25.386;2023-02-13T08:20:18;99090.97;;;6.92;52.96
9439;BME280;5176;42.622;25.386;2023-02-13T08:22:49;99094.06;;;7.11;52.63
9439;BME280;5176;42.622;25.386;2023-02-13T08:25:16;99098.16;;;7.24;52.70
9439;BME280;5176;42.622;25.386;2023-02-13T08:27:44;99101.44;;;6.91;52.28
9439;BME280;5176;42.622;25.386;2023-02-13T08:30:12;99094.38;;;6.96;52.60
9439;BME280;5176;42.622;25.386;2023-02-13T08:32:40;99097.56;;;7.10;52.47
9439;BME280;5176;42.622;25.386;2023-02-13T08:35:07;99097.09;;;6.90;52.70
9439;BME280;5176;42.622;25.386;2023-02-13T08:37:34;99097.72;;;7.01;52.52
9439;BME280;5176;42.622;25.386;2023-02-13T08:40:04;99099.72;;;7.31;52.35
9439;BME280;5176;42.622;25.386;2023-02-13T08:42:31;99083.91;;;7.39;50.69
9439;BME280;5176;42.622;25.386;2023-02-13T08:44:58;99098.06;;;7.69;50.60
9439;BME280;5176;42.622;25.386;2023-02-13T08:47:26;99095.25;;;7.77;50.75
9439;BME280;5176;42.622;25.386;2023-02-13T08:49:53;99089.94;;;7.80;49.58
9439;BME280;5176;42.622;25.386;2023-02-13T08:52:21;99081.66;;;8.00;49.86
9439;BME280;5176;42.622;25.386;2023-02-13T08:54:48;99090.94;;;8.11;48.91
9439;BME280;5176;42.622;25.386;2023-02-13T08:57:16;99092.97;;;8.34;48.58
9439;BME280;5176;42.622;25.386;2023-02-13T08:59:45;99085.50;;;8.56;48.40
9439;BME280;5176;42.622;25.386;2023-02-13T09:02:12;99062.28;;;8.44;48.07
9439;BME280;5176;42.622;25.386;2023-02-13T09:04:40;99054.78;;;8.64;49.02
9439;BME280;5176;42.622;25.386;2023-02-13T09:07:08;99078.81;;;9.08;46.80
9439;BME280;5176;42.622;25.386;2023-02-13T09:09:35;99082.50;;;9.32;46.32
9439;BME280;5176;42.622;25.386;2023-02-13T09:12:04;99074.41;;;9.40;46.31
9439;BME280;5176;42.622;25.386;2023-02-13T09:14:34;99081.03;;;9.51;45.73
9439;BME280;5176;42.622;25.386;2023-02-13T09:17:04;99082.28;;;9.68;45.06
9439;BME280;5176;42.622;25.386;2023-02-13T09:19:32;99069.72;;;9.79;45.11
9439;BME280;5176;42.622;25.386;2023-02-13T09:22:00;99045.47;;;9.72;44.45
9439;BME280;5176;42.622;25.386;2023-02-13T09:24:27;99073.94;;;10.09;44.09
9439;BME280;5176;42.622;25.386;2023-02-13T09:26:56;99071.97;;;10.18;44.40
9439;BME280;5176;42.622;25.386;2023-02-13T09:29:24;99067.34;;;10.26;44.06
9439;BME280;5176;42.622;25.386;2023-02-13T09:31:57;99052.00;;;10.40;44.00
9439;BME280;5176;42.622;25.386;2023-02-13T09:34:26;99052.97;;;10.62;43.16
9439;BME280;5176;42.622;25.386;2023-02-13T09:36:54;99047.50;;;10.69;42.53
9439;BME280;5176;42.622;25.386;2023-02-13T09:39:23;99045.28;;;10.81;43.05
9439;BME280;5176;42.622;25.386;2023-02-13T09:41:52;99044.44;;;10.56;42.88
9439;BME280;5176;42.622;25.386;2023-02-13T09:44:25;99042.31;;;10.42;42.66
9439;BME280;5176;42.622;25.386;2023-02-13T09:47:04;99032.88;;;10.61;42.55
9439;BME280;5176;42.622;25.386;2023-02-13T09:49:35;99036.00;;;10.73;42.36
9439;BME280;5176;42.622;25.386;2023-02-13T09:52:03;99016.66;;;10.75;42.63
9439;BME280;5176;42.622;25.386;2023-02-13T09:54:31;99028.38;;;10.90;41.72
9439;BME280;5176;42.622;25.386;2023-02-13T09:57:00;99011.44;;;10.99;41.37
9439;BME280;5176;42.622;25.386;2023-02-13T09:59:55;99021.47;;;11.11;41.52
9439;BME280;5176;42.622;25.386;2023-02-13T10:02:40;99018.63;;;11.17;40.69
9439;BME280;5176;42.622;25.386;2023-02-13T10:05:20;99010.91;;;11.12;40.20
9439;BME280;5176;42.622;25.386;2023-02-13T10:07:55;99002.66;;;11.00;41.08
9439;BME280;5176;42.622;25.386;2023-02-13T10:10:31;98997.25;;;11.04;40.70
9439;BME280;5176;42.622;25.386;2023-02-13T10:13:15;98992.38;;;11.17;40.33
9439;BME280;5176;42.622;25.386;2023-02-13T10:15:52;98980.28;;;11.13;40.35
9439;BME280;5176;42.622;25.386;2023-02-13T10:18:27;98982.97;;;11.11;40.51
9439;BME280;5176;42.622;25.386;2023-02-13T10:21:00;98979.56;;;11.31;39.77
9439;BME280;5176;42.622;25.386;2023-02-13T10:23:32;98983.28;;;11.26;39.29
9439;BME280;5176;42.622;25.386;2023-02-13T10:26:04;98972.06;;;11.44;39.89
9439;BME280;5176;42.622;25.386;2023-02-13T10:28:37;98964.97;;;11.46;39.71
9439;BME280;5176;42.622;25.386;2023-02-13T10:31:07;98954.66;;;11.41;39.01
9439;BME280;5176;42.622;25.386;2023-02-13T10:33:53;98942.97;;;11.49;40.54
9439;BME280;5176;42.622;25.386;2023-02-13T10:36:24;98962.81;;;11.78;40.78
9439;BME280;5176;42.622;25.386;2023-02-13T10:38:56;98955.03;;;11.96;38.52
9439;BME280;5176;42.622;25.386;2023-02-13T10:41:37;98948.22;;;11.92;38.23
9439;BME280;5176;42.622;25.386;2023-02-13T10:44:36;98943.75;;;11.72;39.01
9439;BME280;5176;42.622;25.386;2023-02-13T10:47:17;98912.41;;;11.26;39.50
9439;BME280;5176;42.622;25.386;2023-02-13T10:50:05;98945.13;;;11.39;38.96
9439;BME280;5176;42.622;25.386;2023-02-13T10:52:43;98945.69;;;11.25;39.68
9439;BME280;5176;42.622;25.386;2023-02-13T10:55:35;98937.66;;;11.28;39.08
9439;BME280;5176;42.622;25.386;2023-02-13T10:58:16;98944.69;;;11.28;39.66
9439;BME280;5176;42.622;25.386;2023-02-13T11:00:47;98929.19;;;11.43;39.70
9439;BME280;5176;42.622;25.386;2023-02-13T11:03:21;98937.72;;;11.49;39.33
9439;BME280;5176;42.622;25.386;2023-02-13T11:05:51;98923.50;;;11.54;39.36
9439;BME280;5176;42.622;25.386;2023-02-13T11:08:21;98922.91;;;11.68;39.64
9439;BME280;5176;42.622;25.386;2023-02-13T11:10:49;98914.41;;;11.83;39.26
9439;BME280;5176;42.622;25.386;2023-02-13T11:13:18;98911.22;;;11.55;38.97
9439;BME280;5176;42.622;25.386;2023-02-13T11:16:00;98917.13;;;11.60;39.39
9439;BME280;5176;42.622;25.386;2023-02-13T11:18:30;98911.88;;;11.60;39.20
9439;BME280;5176;42.622;25.386;2023-02-13T11:21:03;98908.50;;;11.78;39.41
9439;BME280;5176;42.622;25.386;2023-02-13T11:23:40;98891.06;;;11.76;38.79
9439;BME280;5176;42.622;25.386;2023-02-13T11:26:11;98898.13;;;11.95;39.57
9439;BME280;5176;42.622;25.386;2023-02-13T11:28:47;98891.56;;;12.06;38.83
9439;BME280;5176;42.622;25.386;2023-02-13T11:31:24;98852.09;;;11.87;38.21
9439;BME280;5176;42.622;25.386;2023-02-13T11:33:53;98871.63;;;11.80;38.67
9439;BME280;5176;42.622;25.386;2023-02-13T11:36:26;98880.06;;;11.88;39.12
9439;BME280;5176;42.622;25.386;2023-02-13T11:38:58;98877.44;;;12.08;37.75
9439;BME280;5176;42.622;25.386;2023-02-13T11:41:25;98865.59;;;12.18;38.64
9439;BME280;5176;42.622;25.386;2023-02-13T11:43:56;98856.59;;;12.24;37.98
9439;BME280;5176;42.622;25.386;2023-02-13T11:46:28;98875.66;;;12.48;37.60
9439;BME280;5176;42.622;25.386;2023-02-13T11:48:58;98867.56;;;12.52;37.39
9439;BME280;5176;42.622;25.386;2023-02-13T11:51:38;98860.72;;;12.09;37.66
9439;BME280;5176;42.622;25.386;2023-02-13T11:54:24;98857.16;;;11.91;37.78
9439;BME280;5176;42.622;25.386;2023-02-13T11:56:56;98850.91;;;11.94;37.90
9439;BME280;5176;42.622;25.386;2023-02-13T11:59:25;98852.66;;;12.14;37.94
9439;BME280;5176;42.622;25.386;2023-02-13T12:02:01;98850.78;;;11.97;37.89
9439;BME280;5176;42.622;25.386;2023-02-13T12:04:29;98851.03;;;12.11;38.20
9439;BME280;5176;42.622;25.386;2023-02-13T12:07:00;98838.38;;;12.19;38.20
9439;BME280;5176;42.622;25.386;2023-02-13T12:09:29;98845.03;;;12.47;37.18
9439;BME280;5176;42.622;25.386;2023-02-13T12:11:57;98832.06;;;12.61;36.80
9439;BME280;5176;42.622;25.386;2023-02-13T12:14:31;98814.88;;;12.73;36.21
9439;BME280;5176;42.622;25.386;2023-02-13T12:17:04;98830.09;;;13.02;35.95
9439;BME280;5176;42.622;25.386;2023-02-13T12:19:35;98831.66;;;13.25;35.52
9439;BME280;5176;42.622;25.386;2023-02-13T12:22:32;98820.28;;;13.42;35.45
9439;BME280;5176;42.622;25.386;2023-02-13T12:25:22;98814.00;;;12.91;35.35
9439;BME280;5176;42.622;25.386;2023-02-13T12:28:00;98803.13;;;12.80;34.67
9439;BME280;5176;42.622;25.386;2023-02-13T12:31:04;98810.44;;;12.92;34.84
9439;BME280;5176;42.622;25.386;2023-02-13T12:36:46;98780.34;;;13.15;34.57
9439;BME280;5176;42.622;25.386;2023-02-13T12:39:24;98800.81;;;13.27;34.50
9439;BME280;5176;42.622;25.386;2023-02-13T12:42:07;98732.84;;;12.82;35.39
9439;BME280;5176;42.622;25.386;2023-02-13T12:44:56;98800.03;;;13.43;34.40
9439;BME280;5176;42.622;25.386;2023-02-13T12:47:30;98804.06;;;13.67;34.28
9439;BME280;5176;42.622;25.386;2023-02-13T12:50:21;98802.91;;;13.73;33.71
9439;BME280;5176;42.622;25.386;2023-02-13T12:53:14;98799.03;;;13.62;33.89
9439;BME280;5176;42.622;25.386;2023-02-13T12:56:14;98794.06;;;13.74;33.85
9439;BME280;5176;42.622;25.386;2023-02-13T12:58:56;98788.56;;;13.61;33.09
9439;BME280;5176;42.622;25.386;2023-02-13T13:04:29;98799.44;;;13.55;34.01
9439;BME280;5176;42.622;25.386;2023-02-13T13:07:19;98788.88;;;13.55;33.19
9439;BME280;5176;42.622;25.386;2023-02-13T13:10:02;98791.66;;;13.69;33.39
9439;BME280;5176;42.622;25.386;2023-02-13T13:12:45;98789.50;;;13.60;33.69
9439;BME280;5176;42.622;25.386;2023-02-13T13:15:18;98777.28;;;13.24;33.67
9439;BME280;5176;42.622;25.386;2023-02-13T13:18:01;98798.56;;;13.37;33.39
9439;BME280;5176;42.622;25.386;2023-02-13T13:20:57;98786.94;;;13.24;33.49
9439;BME280;5176;42.622;25.386;2023-02-13T13:23:31;98780.44;;;12.77;34.15
9439;BME280;5176;42.622;25.386;2023-02-13T13:26:09;98772.84;;;12.71;34.72
9439;BME280;5176;42.622;25.386;2023-02-13T13:28:44;98778.56;;;12.24;35.51
9439;BME280;5176;42.622;25.386;2023-02-13T13:31:14;98773.66;;;11.78;36.22
9439;BME280;5176;42.622;25.386;2023-02-13T13:33:44;98769.56;;;11.50;36.92
9439;BME280;5176;42.622;25.386;2023-02-13T13:36:20;98751.28;;;11.28;36.88
9439;BME280;5176;42.622;25.386;2023-02-13T13:39:00;98765.53;;;11.84;36.29
9439;BME280;5176;42.622;25.386;2023-02-13T13:41:36;98768.38;;;12.17;35.98
9439;BME280;5176;42.622;25.386;2023-02-13T13:44:39;98758.22;;;12.28;35.36
9439;BME280;5176;42.622;25.386;2023-02-13T13:47:20;98756.81;;;12.40;34.58
9439;BME280;5176;42.622;25.386;2023-02-13T13:49:53;98761.88;;;12.44;34.90
9439;BME280;5176;42.622;25.386;2023-02-13T13:52:24;98753.81;;;12.28;35.17
9439;BME280;5176;42.622;25.386;2023-02-13T13:54:52;98764.50;;;12.44;35.45
9439;BME280;5176;42.622;25.386;2023-02-13T13:57:57;98760.13;;;12.43;35.15